Time;durP1;ratioP1;P1;durP2;ratioP2;P2;SDS_P1;SDS_P2;PMS_P1;PMS_P2;Temp;Humidity;BMP_temperature;BMP_pressure;BME280_temperature;BME280_humidity;BME280_pressure;Samples;Min_cycle;Max_cycle;Signal;HPM_P1;HPM_P2
2023/08/25 00:00:57;;;;;;;10.82;3.00;;;;;;;19.95;100.00;96487.50;5034061;28;20366;-67
2023/08/25 00:03:23;;;;;;;8.32;3.00;;;;;;;19.88;100.00;96450.75;5033808;28;20029;-68
2023/08/25 00:05:55;;;;;;;7.07;2.33;;;;;;;20.02;100.00;96469.84;5033835;28;20037;-67
2023/08/25 00:08:21;;;;;;;9.65;3.22;;;;;;;19.82;100.00;96440.16;5033864;28;20194;-67
2023/08/25 00:10:47;;;;;;;12.88;3.92;;;;;;;19.60;100.00;96377.97;5034138;28;20537;-67
2023/08/25 00:13:13;;;;;;;6.65;3.20;;;;;;;19.52;100.00;96377.38;5033433;28;20120;-68
2023/08/25 00:15:40;;;;;;;13.32;2.92;;;;;;;19.63;100.00;96386.22;5033930;28;20030;-68
2023/08/25 00:18:06;;;;;;;7.15;2.70;;;;;;;19.47;100.00;96359.22;5032462;28;20029;-69
2023/08/25 00:20:31;;;;;;;6.13;2.80;;;;;;;19.50;100.00;96368.69;5034152;28;20026;-69
2023/08/25 00:22:57;;;;;;;10.43;3.65;;;;;;;19.74;100.00;96366.53;5032621;28;20033;-69
2023/08/25 00:25:22;;;;;;;11.93;3.47;;;;;;;19.56;100.00;96380.06;5033592;28;20045;-69
2023/08/25 00:27:48;;;;;;;7.57;3.28;;;;;;;19.44;100.00;96389.84;5033551;28;20554;-69
2023/08/25 00:30:14;;;;;;;9.27;3.80;;;;;;;19.50;100.00;96413.13;5015940;28;20055;-70
2023/08/25 00:32:39;;;;;;;5.93;2.83;;;;;;;19.48;100.00;96430.22;5033823;28;20033;-69
2023/08/25 00:35:05;;;;;;;5.25;3.25;;;;;;;19.37;100.00;96449.09;5033844;28;20089;-70
2023/08/25 00:37:31;;;;;;;9.38;2.60;;;;;;;19.55;100.00;96467.38;5032061;28;20033;-69
2023/08/25 00:39:56;;;;;;;6.15;2.40;;;;;;;19.80;100.00;96470.38;5033756;28;20057;-69
2023/08/25 00:42:21;;;;;;;6.75;2.72;;;;;;;20.03;100.00;96474.22;5033338;28;20025;-69
2023/08/25 00:44:47;;;;;;;9.23;2.80;;;;;;;20.01;100.00;96468.31;5037208;28;20040;-70
2023/08/25 00:47:12;;;;;;;5.43;2.88;;;;;;;20.37;100.00;96495.22;5044047;28;20041;-69
2023/08/25 00:49:38;;;;;;;8.20;2.92;;;;;;;20.28;100.00;96528.44;5045604;28;20040;-70
2023/08/25 00:52:05;;;;;;;5.57;2.90;;;;;;;20.41;100.00;96577.34;5044306;28;20053;-69
2023/08/25 00:54:34;;;;;;;8.60;3.20;;;;;;;20.50;100.00;96662.97;5043601;28;20083;-69
2023/08/25 00:57:00;;;;;;;6.38;2.90;;;;;;;20.35;100.00;96711.81;5043765;28;20029;-69
2023/08/25 00:59:26;;;;;;;6.50;3.38;;;;;;;20.08;100.00;96732.25;5041615;28;20033;-68
2023/08/25 01:01:52;;;;;;;8.48;3.28;;;;;;;20.02;100.00;96704.16;5035775;28;20055;-68
2023/08/25 01:04:17;;;;;;;8.43;3.70;;;;;;;20.04;100.00;96657.25;5034364;28;20038;-70
2023/08/25 01:06:43;;;;;;;8.32;3.20;;;;;;;20.07;100.00;96611.13;5036279;28;20034;-70
2023/08/25 01:09:10;;;;;;;9.95;3.97;;;;;;;19.99;100.00;96573.59;5043977;28;20085;-69
2023/08/25 01:11:58;;;;;;;10.90;3.35;;;;;;;19.94;100.00;96513.72;5053297;28;20036;-69
2023/08/25 01:14:51;;;;;;;8.35;3.17;;;;;;;19.93;100.00;96506.59;5052479;28;20025;-69
2023/08/25 01:17:39;;;;;;;9.20;3.25;;;;;;;19.96;100.00;96464.03;5052534;28;20064;-69
2023/08/25 01:20:06;;;;;;;9.00;3.70;;;;;;;19.93;100.00;96444.69;5045698;28;20044;-69
2023/08/25 01:23:09;;;;;;;10.10;3.95;;;;;;;19.94;100.00;96394.22;5033437;28;20029;-68
2023/08/25 01:25:36;;;;;;;10.82;4.10;;;;;;;19.93;100.00;96375.19;5034924;28;20124;-68
2023/08/25 01:28:04;;;;;;;10.10;4.25;;;;;;;20.01;100.00;96393.25;5040963;28;20026;-67
2023/08/25 01:30:30;;;;;;;10.45;3.90;;;;;;;19.92;100.00;96407.78;5031575;28;20051;-70
2023/08/25 01:32:56;;;;;;;9.40;4.10;;;;;;;20.00;100.00;96405.59;5032819;28;20436;-69
2023/08/25 01:35:30;;;;;;;10.38;4.15;;;;;;;19.95;100.00;96431.13;5031808;28;20045;-69
2023/08/25 01:38:06;;;;;;;15.95;4.13;;;;;;;19.92;100.00;96448.69;5032401;28;20034;-68
2023/08/25 01:40:43;;;;;;;10.80;4.35;;;;;;;19.99;100.00;96454.84;5034840;28;20029;-70
2023/08/25 01:43:10;;;;;;;10.63;4.28;;;;;;;19.82;100.00;96444.94;5031357;28;20109;-69
2023/08/25 01:45:36;;;;;;;13.55;4.10;;;;;;;19.81;100.00;96469.16;5032469;28;20483;-69
2023/08/25 01:48:05;;;;;;;10.45;4.40;;;;;;;20.15;100.00;96456.03;5032423;28;20040;-67
2023/08/25 01:50:33;;;;;;;17.00;4.47;;;;;;;19.79;100.00;96445.78;5032526;28;20104;-68
2023/08/25 01:52:59;;;;;;;10.60;3.75;;;;;;;19.67;100.00;96477.81;5033243;28;20299;-68
2023/08/25 01:55:24;;;;;;;13.02;3.88;;;;;;;19.62;100.00;96478.31;5033388;28;20021;-67
2023/08/25 01:57:50;;;;;;;10.43;3.10;;;;;;;20.08;100.00;96461.78;5033350;28;20041;-69
2023/08/25 02:00:16;;;;;;;9.20;3.17;;;;;;;20.02;100.00;96487.34;5032763;28;20484;-68
2023/08/25 02:02:41;;;;;;;11.45;3.13;;;;;;;20.11;100.00;96516.50;5032851;28;20140;-67
2023/08/25 02:05:06;;;;;;;12.02;3.80;;;;;;;20.34;100.00;96524.66;5033103;28;20175;-69
2023/08/25 02:07:32;;;;;;;11.90;4.22;;;;;;;20.33;100.00;96556.50;5031422;28;20100;-70
2023/08/25 02:09:57;;;;;;;11.38;4.55;;;;;;;20.28;100.00;96576.47;5041700;28;20033;-69
2023/08/25 02:12:22;;;;;;;10.50;3.88;;;;;;;20.25;100.00;96610.72;5035152;28;20026;-69
2023/08/25 02:14:48;;;;;;;16.40;4.72;;;;;;;20.21;100.00;96621.91;5035856;28;20038;-70
2023/08/25 02:17:13;;;;;;;7.25;3.80;;;;;;;20.10;100.00;96612.28;5041755;28;20021;-68
2023/08/25 02:19:39;;;;;;;7.38;3.45;;;;;;;20.03;100.00;96608.41;5036815;28;20029;-69
2023/08/25 02:22:04;;;;;;;9.57;3.72;;;;;;;19.97;100.00;96610.16;5034450;28;20095;-68
2023/08/25 02:24:30;;;;;;;14.30;4.07;;;;;;;19.94;100.00;96562.97;5034072;28;20096;-68
2023/08/25 02:26:55;;;;;;;11.60;3.38;;;;;;;19.90;100.00;96488.03;5033516;28;20084;-69
2023/08/25 02:29:21;;;;;;;6.35;3.40;;;;;;;20.16;100.00;96502.88;5033816;28;20040;-68
2023/08/25 02:31:47;;;;;;;8.35;3.03;;;;;;;20.28;100.00;96495.06;5037387;28;20508;-69
2023/08/25 02:34:12;;;;;;;8.10;3.08;;;;;;;20.49;100.00;96525.09;5039801;28;20608;-68
2023/08/25 02:36:38;;;;;;;7.75;3.00;;;;;;;20.50;100.00;96475.81;5039920;28;20116;-67
2023/08/25 02:39:03;;;;;;;13.93;3.40;;;;;;;20.62;100.00;96486.25;5034951;28;20029;-68
2023/08/25 02:41:28;;;;;;;10.32;3.50;;;;;;;20.47;100.00;96469.09;5036368;28;20377;-70
2023/08/25 02:43:54;;;;;;;7.53;3.17;;;;;;;20.49;100.00;96458.34;5036000;28;20087;-68
2023/08/25 02:46:19;;;;;;;7.28;3.13;;;;;;;20.02;100.00;96403.94;5035944;28;20033;-70
2023/08/25 02:48:44;;;;;;;10.98;3.63;;;;;;;19.68;100.00;96368.25;5035787;28;20152;-68
2023/08/25 02:51:10;;;;;;;8.60;3.50;;;;;;;19.33;100.00;96333.81;5035772;28;20041;-68
2023/08/25 02:53:35;;;;;;;8.32;3.28;;;;;;;19.31;100.00;96400.88;5035849;28;20534;-68
2023/08/25 02:56:02;;;;;;;8.25;3.85;;;;;;;19.42;100.00;96472.81;5037498;28;20029;-69
2023/08/25 02:58:28;;;;;;;10.60;4.10;;;;;;;19.42;100.00;96479.16;5037366;28;20064;-70
2023/08/25 03:00:53;;;;;;;13.43;4.63;;;;;;;19.57;100.00;96506.59;5040330;28;20025;-70
2023/08/25 03:03:18;;;;;;;12.85;4.75;;;;;;;19.63;100.00;96510.47;5041911;28;20036;-68
2023/08/25 03:05:44;;;;;;;10.32;4.20;;;;;;;19.67;100.00;96503.59;5043474;28;20087;-69
2023/08/25 03:08:12;;;;;;;8.55;3.85;;;;;;;19.36;100.00;96480.88;5038372;28;20029;-69
2023/08/25 03:10:41;;;;;;;10.30;4.18;;;;;;;19.28;100.00;96452.50;5037954;28;20113;-68
2023/08/25 03:13:07;;;;;;;8.82;4.15;;;;;;;19.00;100.00;96419.81;5035425;28;20034;-70
2023/08/25 03:15:32;;;;;;;10.10;4.15;;;;;;;18.94;100.00;96393.75;5034969;28;20148;-69
2023/08/25 03:17:57;;;;;;;15.98;5.28;;;;;;;18.75;100.00;96360.03;5034920;28;20037;-70
2023/08/25 03:20:23;;;;;;;11.02;4.78;;;;;;;18.81;100.00;96396.38;5034954;28;20522;-68
2023/08/25 03:22:48;;;;;;;11.23;4.07;;;;;;;19.17;100.00;96388.09;5034489;28;20041;-70
2023/08/25 03:25:14;;;;;;;10.60;3.72;;;;;;;19.13;100.00;96417.94;5035166;28;20029;-69
2023/08/25 03:27:39;;;;;;;7.25;3.35;;;;;;;19.00;100.00;96383.72;5034926;28;20087;-70
2023/08/25 03:30:06;;;;;;;8.68;3.42;;;;;;;19.01;100.00;96399.94;5035008;28;20084;-71
2023/08/25 03:32:31;;;;;;;8.63;3.30;;;;;;;19.07;100.00;96408.56;5034723;28;20046;-70
2023/08/25 03:34:57;;;;;;;7.25;3.67;;;;;;;19.29;100.00;96400.53;5033828;28;20433;-69
2023/08/25 03:37:22;;;;;;;7.68;3.10;;;;;;;19.58;100.00;96411.75;5034675;28;20033;-71
2023/08/25 03:39:47;;;;;;;8.55;3.45;;;;;;;19.54;100.00;96388.81;5035508;28;20033;-70
2023/08/25 03:42:13;;;;;;;7.22;3.88;;;;;;;19.63;100.00;96391.00;5033891;28;20036;-70
2023/08/25 03:44:38;;;;;;;8.07;3.17;;;;;;;19.80;100.00;96427.91;5034474;28;20038;-70
2023/08/25 03:47:03;;;;;;;9.25;3.60;;;;;;;19.92;100.00;96412.56;5034646;28;20039;-70
2023/08/25 03:49:30;;;;;;;8.80;3.42;;;;;;;19.40;100.00;96331.63;5034717;28;20068;-72
2023/08/25 03:51:58;;;;;;;7.82;3.80;;;;;;;18.93;100.00;96295.88;5034434;28;20041;-70
2023/08/25 03:54:24;;;;;;;8.50;3.70;;;;;;;18.96;100.00;96258.94;5034369;28;20108;-70
2023/08/25 03:56:49;;;;;;;12.13;4.10;;;;;;;19.10;100.00;96268.88;5034298;28;20104;-70
2023/08/25 03:59:14;;;;;;;9.48;3.40;;;;;;;19.35;100.00;96279.38;5034639;28;20025;-70
2023/08/25 04:01:40;;;;;;;10.95;3.20;;;;;;;19.51;100.00;96275.03;5034672;28;20482;-70
2023/08/25 04:04:05;;;;;;;9.57;3.88;;;;;;;19.62;100.00;96276.31;5034297;28;20063;-70
2023/08/25 04:06:30;;;;;;;7.88;3.22;;;;;;;19.74;100.00;96276.84;5034071;28;20561;-70
2023/08/25 04:08:56;;;;;;;10.93;4.28;;;;;;;19.67;100.00;96286.13;5034454;28;20061;-69
2023/08/25 04:11:21;;;;;;;8.80;3.60;;;;;;;19.68;100.00;96302.34;5037872;28;20486;-70
2023/08/25 04:13:47;;;;;;;8.57;3.40;;;;;;;19.84;100.00;96323.81;5034605;28;20570;-70
2023/08/25 04:19:34;;;;;;;13.95;5.00;;;;;;;19.21;100.00;96238.09;5032470;28;20031;-69
2023/08/25 04:22:00;;;;;;;12.00;4.60;;;;;;;19.08;100.00;96261.00;5053846;22;20050;-67
2023/08/25 04:24:25;;;;;;;11.52;4.90;;;;;;;19.06;100.00;96268.22;5033047;28;20033;-67
2023/08/25 04:26:53;;;;;;;8.45;4.00;;;;;;;19.23;100.00;96261.44;5033079;28;20034;-66
2023/08/25 04:29:18;;;;;;;9.98;3.92;;;;;;;18.98;100.00;96250.94;5032932;28;20032;-65
2023/08/25 04:31:44;;;;;;;8.68;4.10;;;;;;;19.01;100.00;96250.06;5033113;28;20029;-67
2023/08/25 04:34:09;;;;;;;14.48;3.90;;;;;;;18.81;100.00;96241.03;5031730;28;20037;-66
2023/08/25 04:36:36;;;;;;;9.77;3.55;;;;;;;18.83;100.00;96252.50;5033271;28;20394;-65
2023/08/25 04:39:02;;;;;;;11.40;3.88;;;;;;;19.06;100.00;96251.56;5033600;28;20030;-65
2023/08/25 04:41:28;;;;;;;11.75;3.42;;;;;;;19.09;100.00;96256.25;5033639;28;20025;-65
2023/08/25 04:43:53;;;;;;;11.85;3.97;;;;;;;19.35;100.00;96248.84;5033609;28;20437;-65
2023/08/25 04:46:19;;;;;;;9.27;3.70;;;;;;;19.28;100.00;96243.47;5033515;28;20108;-66
2023/08/25 04:48:46;;;;;;;9.55;3.63;;;;;;;19.24;100.00;96242.78;5035362;28;20514;-67
2023/08/25 04:51:12;;;;;;;6.15;3.38;;;;;;;18.92;100.00;96230.47;5033049;28;20052;-68
2023/08/25 04:53:38;;;;;;;8.98;4.10;;;;;;;19.06;100.00;96238.44;5031910;28;20439;-67
2023/08/25 04:56:04;;;;;;;12.50;4.00;;;;;;;19.23;100.00;96238.44;5032020;28;20100;-67
2023/08/25 04:58:30;;;;;;;9.55;4.00;;;;;;;19.33;100.00;96239.41;5033344;28;20112;-68
2023/08/25 05:00:55;;;;;;;10.82;3.75;;;;;;;19.46;100.00;96232.69;5032889;28;20105;-69
2023/08/25 05:03:20;;;;;;;9.98;3.80;;;;;;;19.50;100.00;96232.59;5032651;28;20044;-66
2023/08/25 05:05:46;;;;;;;6.85;3.67;;;;;;;19.51;100.00;96242.47;5032927;28;20079;-69
2023/08/25 05:08:11;;;;;;;7.80;3.70;;;;;;;19.53;100.00;96244.84;5032563;28;20033;-67
2023/08/25 05:10:36;;;;;;;11.05;3.80;;;;;;;19.56;100.00;96239.19;5032527;28;20111;-67
2023/08/25 05:13:03;;;;;;;10.15;3.55;;;;;;;19.57;100.00;96249.09;5032336;28;20030;-67
2023/08/25 05:15:29;;;;;;;5.25;2.80;;;;;;;19.63;100.00;96229.88;5032415;28;20524;-67
2023/08/25 05:17:54;;;;;;;6.15;2.60;;;;;;;19.94;100.00;96243.38;5032467;28;20033;-67
2023/08/25 05:20:20;;;;;;;6.35;2.58;;;;;;;20.27;100.00;96234.88;5032550;28;20037;-67
2023/08/25 05:22:47;;;;;;;3.95;2.40;;;;;;;20.40;100.00;96232.88;5032047;28;20108;-68
2023/08/25 05:25:12;;;;;;;7.82;3.03;;;;;;;20.55;100.00;96250.72;5032275;28;20036;-68
2023/08/25 05:27:38;;;;;;;7.18;3.40;;;;;;;20.56;100.00;96254.25;5032528;28;20029;-68
2023/08/25 05:30:04;;;;;;;5.72;2.45;;;;;;;20.24;100.00;96240.09;5032362;28;20086;-67
2023/08/25 05:32:30;;;;;;;7.35;2.92;;;;;;;20.18;100.00;96238.31;5031001;28;20379;-68
2023/08/25 05:34:55;;;;;;;7.05;2.75;;;;;;;20.79;100.00;96267.09;5032140;28;20041;-68
2023/08/25 05:37:20;;;;;;;7.95;2.95;;;;;;;21.26;100.00;96268.41;5032287;28;20043;-67
2023/08/25 05:39:46;;;;;;;7.78;2.40;;;;;;;21.55;100.00;96269.06;5032283;28;20034;-66
2023/08/25 05:42:11;;;;;;;3.88;2.45;;;;;;;21.57;100.00;96263.81;5031979;28;20036;-67
2023/08/25 05:44:36;;;;;;;4.88;2.42;;;;;;;21.50;100.00;96274.41;5030962;28;20029;-68
2023/08/25 05:47:03;;;;;;;7.47;2.92;;;;;;;21.29;100.00;96276.66;5032161;28;20030;-66
2023/08/25 05:49:28;;;;;;;6.70;2.67;;;;;;;20.90;100.00;96275.91;5032143;28;20041;-65
2023/08/25 05:51:54;;;;;;;7.78;2.95;;;;;;;20.49;100.00;96269.19;5032317;28;20037;-66
2023/08/25 05:54:19;;;;;;;6.63;2.38;;;;;;;20.59;100.00;96268.06;5031602;28;20371;-67
2023/08/25 05:56:44;;;;;;;7.15;3.17;;;;;;;20.69;100.00;96246.75;5030739;28;20029;-65
2023/08/25 05:59:10;;;;;;;6.55;3.30;;;;;;;19.81;100.00;96226.66;5030736;28;20041;-66
2023/08/25 06:01:35;;;;;;;7.22;3.03;;;;;;;19.72;100.00;96224.47;5032248;28;20057;-67
2023/08/25 06:04:01;;;;;;;11.25;3.17;;;;;;;19.34;100.00;96207.63;5035874;28;20045;-66
2023/08/25 06:06:27;;;;;;;6.43;2.95;;;;;;;19.31;100.00;96216.84;5039472;28;20040;-66
2023/08/25 06:08:53;;;;;;;6.68;3.10;;;;;;;19.24;100.00;96201.16;5040832;28;20038;-65
2023/08/25 06:11:19;;;;;;;6.53;3.38;;;;;;;19.18;100.00;96211.22;5038524;28;20033;-67
2023/08/25 06:13:44;;;;;;;6.93;2.95;;;;;;;19.27;100.00;96203.06;5035623;28;20075;-67
2023/08/25 06:16:09;;;;;;;4.72;2.90;;;;;;;19.37;100.00;96204.75;5036820;28;20037;-67
2023/08/25 06:18:35;;;;;;;5.28;3.05;;;;;;;19.39;100.00;96179.31;5037347;28;20041;-66
2023/08/25 06:21:00;;;;;;;6.57;3.00;;;;;;;19.35;100.00;96193.31;5036196;28;20037;-66
2023/08/25 06:23:26;;;;;;;8.75;2.88;;;;;;;19.58;100.00;96202.63;5034486;28;20064;-66
2023/08/25 06:25:51;;;;;;;8.48;3.75;;;;;;;19.78;100.00;96199.72;5036366;28;20040;-65
2023/08/25 06:28:17;;;;;;;5.78;2.90;;;;;;;19.96;100.00;96208.34;5034675;28;20391;-66
2023/08/25 06:30:42;;;;;;;6.35;3.17;;;;;;;20.09;100.00;96208.38;5034457;28;20053;-67
2023/08/25 06:33:09;;;;;;;7.35;3.47;;;;;;;20.44;100.00;96211.31;5035914;28;20025;-66
2023/08/25 06:35:37;;;;;;;12.13;3.38;;;;;;;20.67;100.00;96215.00;5036313;28;20049;-65
2023/08/25 06:38:04;;;;;;;6.53;2.83;;;;;;;20.53;100.00;96205.88;5036316;28;20034;-67
2023/08/25 06:40:30;;;;;;;6.30;3.15;;;;;;;20.35;100.00;96209.19;5036038;28;20033;-66
2023/08/25 06:42:55;;;;;;;7.00;3.47;;;;;;;20.25;100.00;96213.06;5034856;28;20037;-68
2023/08/25 06:45:21;;;;;;;7.60;3.55;;;;;;;20.36;100.00;96201.63;5033337;28;20412;-68
2023/08/25 06:47:49;;;;;;;7.03;2.88;;;;;;;20.35;100.00;96200.84;5033816;28;20029;-66
2023/08/25 06:50:15;;;;;;;5.57;2.85;;;;;;;20.59;100.00;96206.84;5035220;28;20033;-67
2023/08/25 06:52:40;;;;;;;10.57;3.50;;;;;;;20.96;100.00;96215.66;5033658;28;20405;-66
2023/08/25 06:55:06;;;;;;;7.78;3.20;;;;;;;21.25;100.00;96222.28;5035014;28;20196;-67
2023/08/25 06:57:33;;;;;;;7.55;2.90;;;;;;;21.39;100.00;96225.38;5035129;28;20037;-67
2023/08/25 06:59:58;;;;;;;7.20;3.05;;;;;;;21.49;100.00;96254.13;5033966;28;20033;-66
2023/08/25 07:02:24;;;;;;;5.97;3.20;;;;;;;21.56;100.00;96280.97;5034817;28;20029;-66
2023/08/25 07:04:49;;;;;;;7.30;2.97;;;;;;;21.46;100.00;96282.88;5034827;28;20038;-67
2023/08/25 07:07:24;;;;;;;7.07;3.00;;;;;;;21.27;100.00;96320.88;5034813;28;20372;-66
2023/08/25 07:09:49;;;;;;;10.00;3.65;;;;;;;21.15;100.00;96330.78;5035104;28;20057;-67
2023/08/25 07:12:14;;;;;;;7.65;3.63;;;;;;;21.38;100.00;96326.88;5040753;28;20036;-67
2023/08/25 07:14:40;;;;;;;8.88;3.33;;;;;;;21.40;100.00;96351.50;5023333;28;20033;-67
2023/08/25 07:17:06;;;;;;;8.43;3.40;;;;;;;21.45;100.00;96372.47;5033959;28;20026;-68
2023/08/25 07:19:31;;;;;;;6.90;3.35;;;;;;;21.50;100.00;96386.66;5034556;28;20040;-66
2023/08/25 07:21:56;;;;;;;6.35;3.45;;;;;;;21.50;100.00;96389.44;5035182;28;20084;-68
2023/08/25 07:24:22;;;;;;;8.45;3.20;;;;;;;21.48;100.00;96403.03;5034337;28;20064;-66
2023/08/25 07:26:47;;;;;;;9.73;3.40;;;;;;;21.52;100.00;96406.47;5033211;28;20025;-66
2023/08/25 07:29:12;;;;;;;6.93;3.55;;;;;;;21.47;100.00;96401.47;5034514;28;20057;-66
2023/08/25 07:31:38;;;;;;;14.55;3.92;;;;;;;21.45;100.00;96398.34;5033337;28;20102;-67
2023/08/25 07:34:03;;;;;;;7.18;3.30;;;;;;;21.43;100.00;96420.28;5033906;28;20037;-67
2023/08/25 07:36:29;;;;;;;10.15;3.35;;;;;;;21.47;100.00;96390.31;5034243;28;20033;-68
2023/08/25 07:38:55;;;;;;;8.88;3.08;;;;;;;21.44;100.00;96404.34;5034695;28;20033;-67
2023/08/25 07:41:21;;;;;;;7.55;3.38;;;;;;;21.34;100.00;96437.66;5035481;28;20029;-67
2023/08/25 07:43:48;;;;;;;6.28;3.17;;;;;;;21.41;100.00;96449.78;5033006;28;20397;-67
2023/08/25 07:46:14;;;;;;;12.45;3.72;;;;;;;21.34;100.00;96473.84;5034419;28;20033;-68
2023/08/25 07:48:39;;;;;;;9.05;3.50;;;;;;;21.39;100.00;96459.38;5035779;28;20397;-68
2023/08/25 07:51:05;;;;;;;6.93;3.75;;;;;;;21.40;100.00;96471.31;5034415;28;20025;-67
2023/08/25 07:53:31;;;;;;;12.25;4.10;;;;;;;21.33;100.00;96493.78;5032810;28;20043;-65
2023/08/25 07:55:58;;;;;;;7.32;3.75;;;;;;;21.15;100.00;96492.31;5034402;28;20033;-66
2023/08/25 07:58:24;;;;;;;13.05;3.83;;;;;;;21.19;100.00;96515.28;5032838;28;20049;-66
2023/08/25 08:00:50;;;;;;;9.30;3.72;;;;;;;21.20;100.00;96494.56;5034794;28;20442;-65
2023/08/25 08:03:15;;;;;;;8.40;3.78;;;;;;;21.36;100.00;96496.47;5035606;28;20112;-66
2023/08/25 08:05:41;;;;;;;9.98;3.85;;;;;;;21.49;100.00;96498.53;5034167;28;20186;-67
2023/08/25 08:08:09;;;;;;;7.15;3.33;;;;;;;21.68;100.00;96497.56;5033943;28;20112;-67
2023/08/25 08:10:36;;;;;;;8.70;3.75;;;;;;;22.35;100.00;96504.22;5034161;28;20037;-66
2023/08/25 08:13:02;;;;;;;6.80;3.15;;;;;;;24.15;100.00;96504.00;5032368;28;20036;-66
2023/08/25 08:15:27;;;;;;;10.32;2.90;;;;;;;25.72;100.00;96506.03;5034305;28;20041;-66
2023/08/25 08:17:53;;;;;;;6.80;3.00;;;;;;;25.76;100.00;96510.19;5036747;28;20112;-67
2023/08/25 08:20:18;;;;;;;5.75;2.92;;;;;;;26.82;100.00;96523.56;5036602;28;20026;-67
2023/08/25 08:22:44;;;;;;;7.35;2.60;;;;;;;28.19;89.65;96526.25;5033500;28;20064;-67
2023/08/25 08:25:11;;;;;;;6.57;2.55;;;;;;;28.78;82.82;96533.75;5034735;28;20026;-68
2023/08/25 08:27:37;;;;;;;8.13;3.00;;;;;;;28.99;79.63;96539.38;5034422;28;20026;-68
2023/08/25 08:30:03;;;;;;;11.00;2.65;;;;;;;28.38;79.60;96538.06;5035015;28;20111;-67
2023/08/25 08:32:29;;;;;;;8.02;2.40;;;;;;;28.32;80.92;96551.28;5033969;28;20026;-68
2023/08/25 08:34:54;;;;;;;12.07;2.70;;;;;;;27.19;88.46;96560.59;5033448;28;20055;-66
2023/08/25 08:37:19;;;;;;;8.13;3.10;;;;;;;27.54;91.04;96567.66;5033545;28;20033;-65
2023/08/25 08:39:45;;;;;;;6.70;2.92;;;;;;;27.57;93.24;96567.47;5033851;28;20037;-67
2023/08/25 08:42:14;;;;;;;8.52;2.85;;;;;;;27.48;88.51;96578.00;5032762;28;20397;-66
2023/08/25 08:44:46;;;;;;;9.35;2.85;;;;;;;26.58;90.72;96572.09;5033299;28;20033;-66
2023/08/25 08:47:11;;;;;;;5.63;2.60;;;;;;;26.48;93.65;96605.03;5033370;28;20048;-66
2023/08/25 08:49:38;;;;;;;6.10;2.60;;;;;;;26.26;94.41;96612.94;5033077;28;20549;-67
2023/08/25 08:52:06;;;;;;;9.23;3.50;;;;;;;26.22;97.39;96607.50;5032611;28;20025;-66
2023/08/25 08:54:35;;;;;;;11.32;3.30;;;;;;;26.27;95.83;96618.09;5033357;28;20458;-65
2023/08/25 08:57:00;;;;;;;7.03;2.63;;;;;;;26.14;90.20;96620.31;5035150;28;20029;-65
2023/08/25 08:59:26;;;;;;;6.85;3.20;;;;;;;26.06;91.47;96630.34;5033585;28;20396;-66
2023/08/25 09:01:53;;;;;;;10.80;3.45;;;;;;;25.92;94.57;96631.72;5034494;28;20470;-66
2023/08/25 09:04:22;;;;;;;8.48;3.05;;;;;;;26.07;93.41;96645.91;5033756;28;20398;-65
2023/08/25 09:06:51;;;;;;;12.10;4.03;;;;;;;25.85;94.17;96646.09;5032754;28;20083;-66
2023/08/25 09:09:21;;;;;;;10.38;3.55;;;;;;;25.86;95.55;96645.63;5031897;28;20041;-65
2023/08/25 09:11:48;;;;;;;10.98;3.88;;;;;;;25.97;91.42;96652.81;5035932;28;20029;-65
2023/08/25 09:14:23;;;;;;;8.43;3.72;;;;;;;25.93;93.99;96645.31;5033929;28;20033;-66
2023/08/25 09:16:49;;;;;;;10.50;3.70;;;;;;;26.43;89.60;96649.84;5033294;28;20056;-66
2023/08/25 09:19:16;;;;;;;10.18;3.30;;;;;;;26.94;81.79;96651.00;5032990;28;20029;-66
2023/08/25 09:21:46;;;;;;;7.20;3.30;;;;;;;26.59;86.50;96652.25;5035191;28;20406;-65
2023/08/25 09:24:18;;;;;;;8.75;4.50;;;;;;;26.98;84.95;96655.22;5035423;28;20041;-65
2023/08/25 09:26:43;;;;;;;10.95;3.53;;;;;;;26.65;85.86;96649.59;5033734;28;20036;-66
2023/08/25 09:29:10;;;;;;;7.13;3.28;;;;;;;26.79;86.19;96645.31;5031613;28;20481;-66
2023/08/25 09:31:36;;;;;;;8.35;3.45;;;;;;;26.78;87.70;96643.78;5031559;28;20446;-66
2023/08/25 09:34:05;;;;;;;11.32;5.97;;;;;;;26.68;86.21;96649.44;5032254;28;20108;-65
2023/08/25 09:36:31;;;;;;;8.00;3.63;;;;;;;26.35;88.68;96652.22;5034293;28;20244;-65
2023/08/25 09:38:57;;;;;;;7.63;3.78;;;;;;;26.18;89.01;96651.81;5032022;28;20049;-65
2023/08/25 09:41:26;;;;;;;13.85;4.30;;;;;;;26.04;91.23;96646.88;5032251;28;20053;-65
2023/08/25 09:43:59;;;;;;;11.38;4.00;;;;;;;25.92;90.19;96649.34;5032047;28;20474;-65
2023/08/25 09:46:29;;;;;;;8.88;4.10;;;;;;;25.80;92.02;96647.47;5032038;28;20026;-66
2023/08/25 09:49:01;;;;;;;10.85;4.03;;;;;;;25.76;90.99;96638.47;5031995;28;20068;-66
2023/08/25 09:51:44;;;;;;;7.15;3.92;;;;;;;25.87;91.00;96640.78;5032007;28;20470;-64
2023/08/25 09:54:18;;;;;;;9.38;4.00;;;;;;;26.49;92.04;96634.69;5030536;28;20021;-65
2023/08/25 09:56:45;;;;;;;10.85;4.28;;;;;;;26.87;85.16;96632.50;5030520;28;20018;-65
2023/08/25 09:59:13;;;;;;;11.80;4.65;;;;;;;27.58;82.69;96624.47;5031896;28;20120;-67
2023/08/25 10:01:41;;;;;;;8.98;3.83;;;;;;;28.22;78.03;96625.88;5031870;28;20044;-65
2023/08/25 10:04:06;;;;;;;8.95;3.67;;;;;;;28.38;76.73;96633.81;5030279;28;20052;-66
2023/08/25 10:06:35;;;;;;;12.48;4.25;;;;;;;28.69;74.20;96631.75;5031871;28;20568;-65
2023/08/25 10:09:01;;;;;;;10.95;4.05;;;;;;;29.35;70.01;96638.78;5031836;28;20478;-66
2023/08/25 10:11:29;;;;;;;9.98;3.85;;;;;;;29.50;67.61;96641.53;5031757;28;20049;-66
2023/08/25 10:13:56;;;;;;;8.65;3.75;;;;;;;29.47;64.41;96659.44;5031556;28;20025;-66
2023/08/25 10:16:25;;;;;;;8.23;3.53;;;;;;;29.61;61.85;96657.81;5031749;28;20029;-67
2023/08/25 10:18:54;;;;;;;11.65;4.82;;;;;;;28.95;68.42;96640.31;5031949;28;20041;-66
2023/08/25 10:21:20;;;;;;;8.90;3.88;;;;;;;29.21;66.90;96648.09;5032283;28;20037;-68
2023/08/25 10:23:48;;;;;;;16.10;5.40;;;;;;;29.24;63.28;96645.06;5030099;28;20040;-67
2023/08/25 10:26:15;;;;;;;11.85;4.85;;;;;;;29.33;63.64;96641.31;5031585;28;20458;-65
2023/08/25 10:28:41;;;;;;;10.52;4.28;;;;;;;28.86;63.56;96651.72;5035061;28;20478;-68
2023/08/25 10:31:07;;;;;;;9.75;3.95;;;;;;;28.96;64.14;96645.44;5032982;28;20029;-68
2023/08/25 10:34:05;;;;;;;9.10;4.55;;;;;;;28.44;64.24;96652.88;5031731;28;20030;-69
2023/08/25 10:36:41;;;;;;;10.85;4.30;;;;;;;28.30;65.36;96641.09;4998941;28;20068;-71
2023/08/25 10:39:10;;;;;;;7.80;3.88;;;;;;;28.59;66.30;96640.34;5032272;28;20068;-66
2023/08/25 10:41:44;;;;;;;6.63;3.53;;;;;;;28.58;64.00;96650.03;5032112;28;20079;-65
2023/08/25 10:44:20;;;;;;;9.60;4.20;;;;;;;28.65;63.70;96648.06;5031224;28;20080;-68
2023/08/25 10:46:45;;;;;;;6.78;3.38;;;;;;;28.55;62.19;96662.28;5031483;28;20053;-67
2023/08/25 10:49:12;;;;;;;11.80;4.80;;;;;;;28.66;63.33;96658.84;5031562;28;20480;-69
2023/08/25 10:51:37;;;;;;;10.85;4.30;;;;;;;29.01;62.35;96668.56;5033547;28;20029;-68
2023/08/25 10:54:03;;;;;;;9.00;3.70;;;;;;;28.60;61.61;96680.53;5035051;28;20041;-69
2023/08/25 10:56:28;;;;;;;11.40;3.70;;;;;;;27.83;64.09;96666.13;5035101;28;20029;-66
2023/08/25 10:59:09;;;;;;;6.80;3.47;;;;;;;27.64;66.72;96668.34;5033837;28;20025;-67
2023/08/25 11:01:37;;;;;;;10.10;3.53;;;;;;;27.61;66.45;96660.09;5034828;28;20040;-68
2023/08/25 11:04:13;;;;;;;8.18;3.72;;;;;;;27.66;67.19;96667.88;5033602;28;20073;-67
2023/08/25 11:06:42;;;;;;;6.75;3.75;;;;;;;27.70;70.05;96656.44;5033606;28;20064;-67
2023/08/25 11:09:11;;;;;;;8.00;3.80;;;;;;;28.05;68.13;96650.94;5025377;28;20033;-68
2023/08/25 11:11:41;;;;;;;11.30;3.80;;;;;;;27.97;64.09;96650.56;5033575;28;20038;-67
2023/08/25 11:14:06;;;;;;;7.30;3.75;;;;;;;28.35;62.57;96648.09;5036642;28;20060;-68
2023/08/25 11:16:32;;;;;;;6.97;3.60;;;;;;;28.47;60.72;96649.06;5033908;28;20100;-67
2023/08/25 11:18:57;;;;;;;11.35;3.38;;;;;;;28.56;60.70;96643.34;5033925;28;20041;-67
2023/08/25 11:21:24;;;;;;;5.45;3.15;;;;;;;28.64;59.87;96626.81;5033958;28;20087;-66
2023/08/25 11:23:49;;;;;;;7.63;3.47;;;;;;;29.02;60.08;96636.31;5033620;28;20386;-65
2023/08/25 11:26:19;;;;;;;12.57;3.13;;;;;;;29.20;58.18;96636.03;5033883;28;20026;-66